createdAt,value
2023-01-17T00:02:03.564Z,3.11
2023-01-17T00:04:50.203Z,3.12
2023-01-17T00:07:38.810Z,3.14
2023-01-17T00:10:35.546Z,3.12
2023-01-17T00:13:04.331Z,3.17
2023-01-17T00:15:32.614Z,3.18
2023-01-17T00:18:00.482Z,3.18
2023-01-17T00:20:48.992Z,3.18
2023-01-17T00:23:41.265Z,3.19
2023-01-17T00:26:15.137Z,3.22
2023-01-17T00:28:44.367Z,3.29
2023-01-17T00:31:14.241Z,3.35
2023-01-17T00:33:42.243Z,3.34
2023-01-17T00:36:10.341Z,3.32
2023-01-17T00:38:39.586Z,3.38
2023-01-17T00:41:13.557Z,3.36
2023-01-17T00:44:00.312Z,3.36
2023-01-17T00:46:46.543Z,3.31
2023-01-17T00:49:33.657Z,3.32
2023-01-17T00:52:20.495Z,3.29
2023-01-17T00:55:06.735Z,3.34
2023-01-17T00:57:53.236Z,3.35
2023-01-17T01:00:39.976Z,3.35
2023-01-17T01:03:30.291Z,3.36
2023-01-17T01:06:16.751Z,3.39
2023-01-17T01:09:03.528Z,3.29
2023-01-17T01:11:50.208Z,3.29
2023-01-17T01:14:38.035Z,3.22
2023-01-17T01:17:24.584Z,3.12
2023-01-17T01:20:10.804Z,3.14
2023-01-17T01:22:57.179Z,3.09
2023-01-17T01:25:43.880Z,3.05
2023-01-17T01:28:32.156Z,3.01
2023-01-17T01:31:20.219Z,3.01
2023-01-17T01:33:48.541Z,2.94
2023-01-17T01:36:16.420Z,2.93
2023-01-17T01:38:44.274Z,2.91
2023-01-17T01:41:12.421Z,2.91
2023-01-17T01:43:45.101Z,2.87
2023-01-17T01:46:21.432Z,2.89
2023-01-17T01:48:52.095Z,2.87
2023-01-17T01:51:34.892Z,2.84
2023-01-17T01:54:11.835Z,2.89
2023-01-17T01:56:41.153Z,2.86
2023-01-17T01:59:12.596Z,2.83
2023-01-17T02:01:40.512Z,2.80
2023-01-17T02:04:10.073Z,2.75
2023-01-17T02:06:48.964Z,2.62
2023-01-17T02:09:18.473Z,2.52
2023-01-17T02:11:49.044Z,2.59
2023-01-17T02:14:18.604Z,2.56
2023-01-17T02:16:58.707Z,2.53
2023-01-17T02:20:00.727Z,2.44
2023-01-17T02:22:52.924Z,2.41
2023-01-17T02:25:43.463Z,2.38
2023-01-17T02:28:42.367Z,2.21
2023-01-17T02:31:18.578Z,2.18
2023-01-17T02:34:00.004Z,2.13
2023-01-17T02:36:40.369Z,2.11
2023-01-17T02:39:19.734Z,2.10
2023-01-17T02:41:53.445Z,2.11
2023-01-17T02:44:22.330Z,2.07
2023-01-17T02:46:55.941Z,2.13
2023-01-17T02:49:30.390Z,2.10
2023-01-17T02:52:07.520Z,2.10
2023-01-17T02:55:02.731Z,2.10
2023-01-17T02:57:42.535Z,2.11
2023-01-17T03:00:40.591Z,2.13
2023-01-17T03:03:14.399Z,2.14
2023-01-17T03:05:54.117Z,2.11
2023-01-17T03:08:22.360Z,2.10
2023-01-17T03:10:50.263Z,2.13
2023-01-17T03:13:18.271Z,2.17
2023-01-17T03:15:46.484Z,2.15
2023-01-17T03:18:16.269Z,2.17
2023-01-17T03:20:44.487Z,2.21
2023-01-17T03:23:12.394Z,2.24
2023-01-17T03:25:40.259Z,2.18
2023-01-17T03:28:08.181Z,2.21
2023-01-17T03:30:36.121Z,2.20
2023-01-17T03:33:04.065Z,2.24
2023-01-17T03:35:32.075Z,2.28
2023-01-17T03:37:59.929Z,2.28
2023-01-17T03:40:27.823Z,2.29
2023-01-17T03:42:55.655Z,2.27
2023-01-17T03:45:23.549Z,2.25
2023-01-17T03:47:51.700Z,2.27
2023-01-17T03:50:19.764Z,2.20
2023-01-17T03:52:47.588Z,2.22
2023-01-17T03:55:15.504Z,2.22
2023-01-17T03:57:43.340Z,2.24
2023-01-17T04:00:12.233Z,2.21
2023-01-17T04:02:40.130Z,2.21
2023-01-17T04:05:08.302Z,2.21
2023-01-17T04:07:36.235Z,2.18
2023-01-17T04:10:06.819Z,2.11
2023-01-17T04:12:34.602Z,2.06
2023-01-17T04:15:02.411Z,2.00
2023-01-17T04:17:30.519Z,1.94
2023-01-17T04:19:58.331Z,1.86
2023-01-17T04:22:31.502Z,1.83
2023-01-17T04:24:59.701Z,1.76
2023-01-17T04:27:27.589Z,1.72
2023-01-17T04:29:55.417Z,1.70
2023-01-17T04:32:23.208Z,1.64
2023-01-17T04:34:51.251Z,1.64
2023-01-17T04:37:19.049Z,1.70
2023-01-17T04:39:46.946Z,1.73
2023-01-17T04:42:14.762Z,1.74
2023-01-17T04:44:42.651Z,1.73
2023-01-17T04:47:10.481Z,1.67
2023-01-17T04:49:38.389Z,1.63
2023-01-17T04:52:06.179Z,1.59
2023-01-17T04:54:34.073Z,1.51
2023-01-17T04:57:01.908Z,1.42
2023-01-17T04:59:29.668Z,1.38
2023-01-17T05:01:57.563Z,1.27
2023-01-17T05:04:25.489Z,1.23
2023-01-17T05:06:53.267Z,1.17
2023-01-17T05:09:21.142Z,1.13
2023-01-17T05:11:48.929Z,1.07
2023-01-17T05:14:16.823Z,1.01
2023-01-17T05:16:44.869Z,1.00
2023-01-17T05:19:13.107Z,1.01
2023-01-17T05:21:41.109Z,0.98
2023-01-17T05:24:09.078Z,0.93
2023-01-17T05:26:37.426Z,0.89
2023-01-17T05:29:05.191Z,0.84
2023-01-17T05:31:33.111Z,0.79
2023-01-17T05:34:01.056Z,0.77
2023-01-17T05:36:29.167Z,0.73
2023-01-17T05:38:56.934Z,0.72
2023-01-17T05:41:24.829Z,0.73
2023-01-17T05:43:52.702Z,0.65
2023-01-17T05:46:20.571Z,0.66
2023-01-17T05:48:48.455Z,0.62
2023-01-17T05:51:16.316Z,0.61
2023-01-17T05:53:44.237Z,0.65
2023-01-17T05:56:12.339Z,0.62
2023-01-17T05:58:40.297Z,0.70
2023-01-17T06:01:14.156Z,0.70
2023-01-17T06:03:42.079Z,0.76
2023-01-17T06:06:09.948Z,0.80
2023-01-17T06:08:37.823Z,0.83
2023-01-17T06:11:05.713Z,0.81
2023-01-17T06:13:33.751Z,0.77
2023-01-17T06:16:04.012Z,0.79
2023-01-17T06:18:32.266Z,0.76
2023-01-17T06:21:00.170Z,0.76
2023-01-17T06:23:28.455Z,0.79
2023-01-17T06:25:56.329Z,0.75
2023-01-17T06:28:24.688Z,0.66
2023-01-17T06:30:52.581Z,0.62
2023-01-17T06:33:20.861Z,0.58
2023-01-17T06:35:51.460Z,0.53
2023-01-17T06:38:20.186Z,0.52
2023-01-17T06:40:48.622Z,0.46
2023-01-17T06:43:16.749Z,0.46
2023-01-17T06:45:44.589Z,0.42
2023-01-17T06:48:12.589Z,0.40
2023-01-17T06:50:40.457Z,0.41
2023-01-17T06:53:08.365Z,0.38
2023-01-17T06:55:40.309Z,0.40
2023-01-17T06:58:09.911Z,0.40
2023-01-17T07:00:40.601Z,0.42
2023-01-17T07:03:17.891Z,0.42
2023-01-17T07:05:45.789Z,0.40
2023-01-17T07:08:14.147Z,0.37
2023-01-17T07:10:44.421Z,0.40
2023-01-17T07:13:13.210Z,0.41
2023-01-17T07:15:41.166Z,0.42
2023-01-17T07:18:09.189Z,0.41
2023-01-17T07:20:38.481Z,0.41
2023-01-17T07:23:06.713Z,0.45
2023-01-17T07:25:34.569Z,0.49
2023-01-17T07:28:02.486Z,0.53
2023-01-17T07:30:30.549Z,0.52
2023-01-17T07:32:58.493Z,0.56
2023-01-17T07:35:26.794Z,0.61
2023-01-17T07:37:55.150Z,0.65
2023-01-17T07:40:23.715Z,0.73
2023-01-17T07:42:51.583Z,0.75
2023-01-17T07:45:20.580Z,0.76
2023-01-17T07:47:50.124Z,0.75
2023-01-17T07:50:18.182Z,0.72
2023-01-17T07:52:50.277Z,0.68
2023-01-17T07:55:19.185Z,0.65
2023-01-17T07:57:50.791Z,0.63
2023-01-17T08:00:19.184Z,0.65
2023-01-17T08:02:47.151Z,0.61
2023-01-17T08:05:15.823Z,0.62
2023-01-17T08:07:43.669Z,0.62
2023-01-17T08:10:16.861Z,0.59
2023-01-17T08:12:48.599Z,0.58
2023-01-17T08:15:17.760Z,0.58
2023-01-17T08:17:49.693Z,0.59
2023-01-17T08:20:17.782Z,0.56
2023-01-17T08:22:45.776Z,0.55
2023-01-17T08:25:13.860Z,0.56
2023-01-17T08:27:41.674Z,0.58
2023-01-17T08:30:10.292Z,0.61
2023-01-17T08:32:40.755Z,0.62
2023-01-17T08:35:09.412Z,0.62
2023-01-17T08:37:37.921Z,0.66
2023-01-17T08:40:07.162Z,0.72
2023-01-17T08:42:40.367Z,0.73
2023-01-17T08:45:09.944Z,0.75
2023-01-17T08:47:38.185Z,0.76
2023-01-17T08:50:06.872Z,0.81
2023-01-17T08:52:34.698Z,0.84
2023-01-17T08:55:02.936Z,0.89
2023-01-17T08:57:32.195Z,0.89
2023-01-17T08:59:59.997Z,0.86
2023-01-17T09:02:27.878Z,0.86
2023-01-17T09:04:55.754Z,0.90
2023-01-17T09:07:24.355Z,0.89
2023-01-17T09:09:52.665Z,0.86
2023-01-17T09:12:22.294Z,0.87
2023-01-17T09:14:50.371Z,0.87
2023-01-17T09:17:18.317Z,0.91
2023-01-17T09:19:48.594Z,0.90
2023-01-17T09:22:16.470Z,0.93
2023-01-17T09:24:44.238Z,0.93
2023-01-17T09:27:12.201Z,0.91
2023-01-17T09:29:40.056Z,0.94
2023-01-17T09:32:07.906Z,0.98
2023-01-17T09:34:35.701Z,1.00
2023-01-17T09:37:03.568Z,1.04
2023-01-17T09:39:31.446Z,1.04
2023-01-17T09:42:10.596Z,1.07
2023-01-17T09:44:53.382Z,1.15
2023-01-17T09:47:30.225Z,1.17
2023-01-17T09:50:08.619Z,1.27
2023-01-17T09:52:36.565Z,1.36
2023-01-17T09:55:07.994Z,1.39
2023-01-17T09:57:59.002Z,1.48
2023-01-17T10:00:44.503Z,1.60
2023-01-17T10:03:15.039Z,1.70
2023-01-17T10:05:52.891Z,1.80
2023-01-17T10:08:33.459Z,1.98
2023-01-17T10:11:38.840Z,2.04
2023-01-17T10:14:27.994Z,2.00
2023-01-17T10:17:10.715Z,1.97
2023-01-17T10:20:07.118Z,2.01
2023-01-17T10:22:55.903Z,2.04
2023-01-17T10:25:49.086Z,2.15
2023-01-17T10:28:21.626Z,2.18
2023-01-17T10:30:52.464Z,2.17
2023-01-17T10:33:24.298Z,2.20
2023-01-17T10:36:15.797Z,2.21
2023-01-17T10:38:51.956Z,2.24
2023-01-17T10:41:38.151Z,2.25
2023-01-17T10:44:11.861Z,2.29
2023-01-17T10:47:02.521Z,2.27
2023-01-17T10:49:30.448Z,2.28
2023-01-17T10:52:13.535Z,2.29
2023-01-17T10:55:10.537Z,2.35
2023-01-17T10:57:40.450Z,2.44
2023-01-17T11:00:39.973Z,2.56
2023-01-17T11:03:11.904Z,2.64
2023-01-17T11:05:43.578Z,2.67
2023-01-17T11:08:13.837Z,2.75
2023-01-17T11:10:50.771Z,2.80
2023-01-17T11:13:32.170Z,2.79
2023-01-17T11:16:04.145Z,2.81
2023-01-17T11:18:34.987Z,2.80
2023-01-17T11:21:16.428Z,2.73
2023-01-17T11:23:47.267Z,2.69
2023-01-17T11:26:30.416Z,2.73
2023-01-17T11:29:32.800Z,2.69
2023-01-17T11:32:32.893Z,2.64
2023-01-17T11:35:12.375Z,2.63
2023-01-17T11:37:49.203Z,2.64
2023-01-17T11:40:25.243Z,2.72
2023-01-17T11:43:02.311Z,2.79
2023-01-17T11:45:33.108Z,2.84
2023-01-17T11:48:11.772Z,2.81
2023-01-17T11:50:47.004Z,2.81
2023-01-17T11:53:28.676Z,2.81
2023-01-17T11:56:16.675Z,2.79
2023-01-17T11:58:48.331Z,2.73
2023-01-17T12:01:44.118Z,2.77
2023-01-17T12:04:11.872Z,2.76
2023-01-17T12:07:09.446Z,2.80
2023-01-17T12:10:06.089Z,2.86
2023-01-17T12:12:52.502Z,2.90
2023-01-17T12:15:25.656Z,2.86
2023-01-17T12:18:09.071Z,2.81
2023-01-17T12:20:46.579Z,2.84
2023-01-17T12:23:31.278Z,2.87
2023-01-17T12:26:23.897Z,2.87
2023-01-17T12:29:10.843Z,2.89
2023-01-17T12:32:11.689Z,2.93
2023-01-17T12:35:17.778Z,2.94
2023-01-17T12:38:00.259Z,2.90
2023-01-17T12:40:50.064Z,2.96
2023-01-17T12:43:37.340Z,2.94
2023-01-17T12:46:14.319Z,3.04
2023-01-17T12:48:43.608Z,3.07
2023-01-17T12:51:20.249Z,3.12
2023-01-17T12:54:04.312Z,3.14
2023-01-17T12:56:34.559Z,3.18
2023-01-17T12:59:44.893Z,3.22
2023-01-17T13:02:22.324Z,3.21
2023-01-17T13:04:59.344Z,3.24
2023-01-17T13:07:44.267Z,3.25
2023-01-17T13:10:24.967Z,3.31
2023-01-17T13:12:57.909Z,3.32
2023-01-17T13:15:28.964Z,3.34
2023-01-17T13:18:07.208Z,3.34
2023-01-17T13:21:06.125Z,3.36
2023-01-17T13:23:56.365Z,3.43
2023-01-17T13:26:59.233Z,3.45
2023-01-17T13:29:54.925Z,3.42
2023-01-17T13:33:09.169Z,3.40
2023-01-17T13:35:46.963Z,3.46
2023-01-17T13:38:31.761Z,3.45
2023-01-17T13:41:27.437Z,3.45
2023-01-17T13:44:13.906Z,3.42
2023-01-17T13:46:57.726Z,3.42
2023-01-17T13:49:35.754Z,3.43
2023-01-17T13:52:09.553Z,3.42
2023-01-17T13:54:49.618Z,3.36
2023-01-17T13:57:46.603Z,3.35
2023-01-17T14:00:21.947Z,3.35
2023-01-17T14:02:51.396Z,3.35
2023-01-17T14:05:32.459Z,3.38
2023-01-17T14:08:15.582Z,3.45
2023-01-17T14:10:53.181Z,3.42
2023-01-17T14:13:38.666Z,3.39
2023-01-17T14:16:21.776Z,3.35
2023-01-17T14:18:50.074Z,3.31
2023-01-17T14:21:25.399Z,3.32
2023-01-17T14:24:14.291Z,3.34
2023-01-17T14:26:54.530Z,3.35
2023-01-17T14:29:45.217Z,3.36
2023-01-17T14:32:16.752Z,3.32
2023-01-17T14:34:47.046Z,3.29
2023-01-17T14:37:32.499Z,3.28
2023-01-17T14:40:01.010Z,3.25
2023-01-17T14:42:31.075Z,3.27
2023-01-17T14:45:06.877Z,3.25
2023-01-17T14:47:39.288Z,3.19
2023-01-17T14:50:29.289Z,3.15
2023-01-17T14:53:12.686Z,3.12
2023-01-17T14:55:51.034Z,3.11
2023-01-17T14:58:24.525Z,3.08
2023-01-17T15:01:02.287Z,3.03
2023-01-17T15:03:33.364Z,3.00
2023-01-17T15:06:11.415Z,2.89
2023-01-17T15:08:39.604Z,2.83
2023-01-17T15:11:16.118Z,2.86
2023-01-17T15:13:47.424Z,2.80
2023-01-17T15:16:27.418Z,2.79
2023-01-17T15:18:57.201Z,2.75
2023-01-17T15:21:29.084Z,2.72
2023-01-17T15:24:03.507Z,2.67
2023-01-17T15:26:35.782Z,2.59
2023-01-17T15:29:15.760Z,2.52
2023-01-17T15:31:49.508Z,2.42
2023-01-17T15:34:59.387Z,2.31
2023-01-17T15:37:39.955Z,2.29
2023-01-17T15:40:22.247Z,2.20
2023-01-17T15:42:53.984Z,2.15
2023-01-17T15:45:31.826Z,2.08
2023-01-17T15:48:30.644Z,1.98
2023-01-17T15:50:59.210Z,1.94
2023-01-17T15:53:32.861Z,1.87
2023-01-17T15:56:01.379Z,1.84
2023-01-17T15:58:30.401Z,1.76
2023-01-17T16:00:58.508Z,1.70
2023-01-17T16:03:29.781Z,1.66
2023-01-17T16:06:00.267Z,1.62
2023-01-17T16:08:40.048Z,1.58
2023-01-17T16:11:10.659Z,1.48
2023-01-17T16:13:39.326Z,1.42
2023-01-17T16:16:22.410Z,1.41
2023-01-17T16:18:57.753Z,1.35
2023-01-17T16:21:28.440Z,1.27
2023-01-17T16:23:56.739Z,1.25
2023-01-17T16:26:24.750Z,1.21
2023-01-17T16:28:52.622Z,1.15
2023-01-17T16:31:20.634Z,1.15
2023-01-17T16:33:50.688Z,1.08
2023-01-17T16:36:20.762Z,1.01
2023-01-17T16:38:51.237Z,1.03
2023-01-17T16:41:20.293Z,1.00
2023-01-17T16:43:58.462Z,0.93
2023-01-17T16:46:27.048Z,0.89
2023-01-17T16:48:56.658Z,0.81
2023-01-17T16:51:24.631Z,0.77
2023-01-17T16:53:52.436Z,0.70
2023-01-17T16:56:20.492Z,0.68
2023-01-17T16:58:48.312Z,0.65
2023-01-17T17:01:20.806Z,0.59
2023-01-17T17:03:49.031Z,0.52
2023-01-17T17:06:17.105Z,0.51
2023-01-17T17:08:45.077Z,0.53
2023-01-17T17:11:13.176Z,0.51
2023-01-17T17:13:48.726Z,0.46
2023-01-17T17:16:32.832Z,0.42
2023-01-17T17:19:03.737Z,0.41
2023-01-17T17:21:34.021Z,0.37
2023-01-17T17:24:02.600Z,0.40
2023-01-17T17:26:36.189Z,0.35
2023-01-17T17:29:05.524Z,0.31
2023-01-17T17:31:33.753Z,0.26
2023-01-17T17:34:03.660Z,0.21
2023-01-17T17:36:31.755Z,0.21
2023-01-17T17:39:01.974Z,0.18
2023-01-17T17:41:32.875Z,0.19
2023-01-17T17:44:02.031Z,0.14
2023-01-17T17:46:30.901Z,0.11
2023-01-17T17:48:59.551Z,0.10
2023-01-17T17:51:28.585Z,0.07
2023-01-17T17:54:00.907Z,0.08
2023-01-17T17:56:30.441Z,0.04
2023-01-17T17:58:59.214Z,0.04
2023-01-17T18:01:28.065Z,-0.02
2023-01-17T18:04:02.871Z,-0.06
2023-01-17T18:06:34.500Z,-0.10
2023-01-17T18:09:03.265Z,-0.11
2023-01-17T18:11:31.799Z,-0.15
2023-01-17T18:14:02.608Z,-0.20
2023-01-17T18:16:35.744Z,-0.15
2023-01-17T18:19:04.877Z,-0.20
2023-01-17T18:21:35.983Z,-0.24
2023-01-17T18:24:12.436Z,-0.27
2023-01-17T18:26:43.527Z,-0.28
2023-01-17T18:29:16.258Z,-0.31
2023-01-17T18:31:45.646Z,-0.35
2023-01-17T18:34:15.962Z,-0.38
2023-01-17T18:36:44.297Z,-0.39
2023-01-17T18:39:15.205Z,-0.37
2023-01-17T18:41:43.383Z,-0.39
2023-01-17T18:44:11.806Z,-0.34
2023-01-17T18:46:42.157Z,-0.35
2023-01-17T18:49:16.448Z,-0.34
2023-01-17T18:51:46.727Z,-0.30
2023-01-17T18:54:14.643Z,-0.24
2023-01-17T18:56:42.714Z,-0.15
2023-01-17T18:59:12.946Z,-0.14
2023-01-17T19:01:44.593Z,-0.13
2023-01-17T19:04:13.894Z,-0.10
2023-01-17T19:06:44.203Z,-0.04
2023-01-17T19:09:14.231Z,-0.02
2023-01-17T19:11:44.436Z,-0.04
2023-01-17T19:14:12.993Z,-0.03
2023-01-17T19:16:41.803Z,-0.03
2023-01-17T19:19:13.967Z,-0.09
2023-01-17T19:21:42.060Z,-0.10
2023-01-17T19:24:13.296Z,-0.14
2023-01-17T19:26:42.051Z,-0.18
2023-01-17T19:29:10.249Z,-0.20
2023-01-17T19:31:42.626Z,-0.18
2023-01-17T19:34:13.831Z,-0.17
2023-01-17T19:36:42.329Z,-0.21
2023-01-17T19:39:10.733Z,-0.17
2023-01-17T19:41:43.107Z,-0.18
2023-01-17T19:44:13.101Z,-0.22
2023-01-17T19:46:41.156Z,-0.20
2023-01-17T19:49:09.820Z,-0.25
2023-01-17T19:51:39.389Z,-0.27
2023-01-17T19:54:08.372Z,-0.25
2023-01-17T19:56:36.839Z,-0.28
2023-01-17T19:59:04.864Z,-0.31
2023-01-17T20:01:34.188Z,-0.28
2023-01-17T20:04:04.106Z,-0.31
2023-01-17T20:06:35.614Z,-0.30
2023-01-17T20:09:05.688Z,-0.30
2023-01-17T20:11:33.956Z,-0.32
2023-01-17T20:14:02.644Z,-0.31
2023-01-17T20:16:31.900Z,-0.34
2023-01-17T20:19:02.374Z,-0.32
2023-01-17T20:21:31.368Z,-0.31
2023-01-17T20:24:03.014Z,-0.32
2023-01-17T20:26:36.315Z,-0.34
2023-01-17T20:29:09.973Z,-0.35
2023-01-17T20:31:39.388Z,-0.37
2023-01-17T20:34:10.489Z,-0.35
2023-01-17T20:36:40.063Z,-0.32
2023-01-17T20:39:10.919Z,-0.34
2023-01-17T20:41:40.974Z,-0.31
2023-01-17T20:44:12.836Z,-0.31
2023-01-17T20:46:41.515Z,-0.31
2023-01-17T20:49:15.864Z,-0.25
2023-01-17T20:51:45.405Z,-0.20
2023-01-17T20:54:16.870Z,-0.21
2023-01-17T20:56:47.734Z,-0.17
2023-01-17T20:59:18.953Z,-0.14
2023-01-17T21:01:47.858Z,-0.13
2023-01-17T21:04:25.039Z,-0.11
2023-01-17T21:06:53.661Z,-0.11
2023-01-17T21:09:22.437Z,-0.10
2023-01-17T21:11:51.795Z,-0.10
2023-01-17T21:14:21.867Z,-0.10
2023-01-17T21:16:50.622Z,-0.10
2023-01-17T21:19:21.380Z,-0.04
2023-01-17T21:21:50.256Z,-0.02
2023-01-17T21:24:19.578Z,-0.03
2023-01-17T21:26:49.624Z,-0.03
2023-01-17T21:29:17.425Z,0.01
2023-01-17T21:31:45.365Z,0.01
2023-01-17T21:34:13.818Z,0.04
2023-01-17T21:36:43.164Z,0.06
2023-01-17T21:39:16.779Z,0.06
2023-01-17T21:41:48.144Z,0.07
2023-01-17T21:44:22.324Z,0.06
2023-01-17T21:46:56.145Z,0.06
2023-01-17T21:49:24.625Z,0.01
2023-01-17T21:51:52.429Z,0.01
2023-01-17T21:54:44.565Z,-0.03
2023-01-17T21:57:32.996Z,-0.04
2023-01-17T22:00:00.975Z,-0.04
2023-01-17T22:02:28.835Z,-0.03
2023-01-17T22:04:56.855Z,-0.02
2023-01-17T22:07:28.974Z,-0.09
2023-01-17T22:09:57.035Z,-0.11
2023-01-17T22:12:25.338Z,-0.09
2023-01-17T22:14:53.603Z,-0.14
2023-01-17T22:17:21.638Z,-0.11
2023-01-17T22:19:49.439Z,-0.14
2023-01-17T22:22:17.419Z,-0.17
2023-01-17T22:24:45.170Z,-0.20
2023-01-17T22:27:13.717Z,-0.21
2023-01-17T22:29:41.879Z,-0.27
2023-01-17T22:32:09.681Z,-0.27
2023-01-17T22:34:37.621Z,-0.24
2023-01-17T22:37:09.990Z,-0.21
2023-01-17T22:39:38.842Z,-0.24
2023-01-17T22:42:07.159Z,-0.25
2023-01-17T22:44:35.018Z,-0.25
2023-01-17T22:47:03.188Z,-0.32
2023-01-17T22:49:31.115Z,-0.34
2023-01-17T22:51:58.953Z,-0.34
2023-01-17T22:54:26.852Z,-0.31
2023-01-17T22:56:54.696Z,-0.32
2023-01-17T22:59:22.783Z,-0.35
2023-01-17T23:01:50.883Z,-0.38
2023-01-17T23:04:18.849Z,-0.37
2023-01-17T23:06:46.732Z,-0.37
2023-01-17T23:09:17.239Z,-0.41
2023-01-17T23:11:49.841Z,-0.37
2023-01-17T23:14:30.316Z,-0.34
2023-01-17T23:17:19.569Z,-0.28
2023-01-17T23:19:52.500Z,-0.28
2023-01-17T23:22:23.207Z,-0.31
2023-01-17T23:25:11.218Z,-0.32
2023-01-17T23:28:03.195Z,-0.34
2023-01-17T23:30:37.300Z,-0.37
2023-01-17T23:33:06.441Z,-0.41
2023-01-17T23:35:41.268Z,-0.44
2023-01-17T23:38:31.124Z,-0.48
2023-01-17T23:41:26.444Z,-0.54
2023-01-17T23:43:56.057Z,-0.59
2023-01-17T23:46:25.320Z,-0.68
2023-01-17T23:48:54.986Z,-0.72
2023-01-17T23:51:23.145Z,-0.79
2023-01-17T23:53:55.176Z,-0.87
2023-01-17T23:56:24.833Z,-0.96
2023-01-17T23:58:52.696Z,-0.99
